Time;durP1;ratioP1;P1;durP2;ratioP2;P2;SDS_P1;SDS_P2;PMS_P1;PMS_P2;Temp;Humidity;BMP_temperature;BMP_pressure;BME280_temperature;BME280_humidity;BME280_pressure;Samples;Min_cycle;Max_cycle;Signal;HPM_P1;HPM_P2
2022/06/10 00:02:11;;;;;;;10.48;7.00;;;14.40;99.90;;;;;;4990746;28;20230;-71
2022/06/10 00:04:38;;;;;;;10.43;6.47;;;14.40;99.90;;;;;;4987887;28;20293;-72
2022/06/10 00:07:06;;;;;;;14.48;7.20;;;14.40;99.90;;;;;;4989091;28;20329;-72
2022/06/10 00:09:35;;;;;;;10.40;6.20;;;14.30;99.90;;;;;;4986818;28;20200;-73
2022/06/10 00:12:02;;;;;;;8.98;8.07;;;14.30;99.90;;;;;;4990982;28;20265;-72
2022/06/10 00:14:29;;;;;;;8.27;6.38;;;14.20;99.90;;;;;;4991673;28;20307;-73
2022/06/10 00:16:56;;;;;;;10.25;6.70;;;14.10;99.90;;;;;;4987544;28;20652;-70
2022/06/10 00:19:23;;;;;;;14.38;7.75;;;14.10;99.90;;;;;;5002108;28;20292;-73
2022/06/10 00:21:49;;;;;;;8.93;8.00;;;14.00;99.90;;;;;;4985462;28;20329;-71
2022/06/10 00:24:16;;;;;;;6.63;5.85;;;14.00;99.90;;;;;;4992798;28;20198;-71
2022/06/10 00:26:44;;;;;;;10.57;8.00;;;13.90;99.90;;;;;;4993147;28;20271;-72
2022/06/10 00:29:11;;;;;;;9.05;5.85;;;13.90;99.90;;;;;;4997248;28;20209;-72
2022/06/10 00:31:38;;;;;;;7.53;6.65;;;13.90;99.90;;;;;;4992020;28;20198;-72
2022/06/10 00:34:05;;;;;;;10.90;8.20;;;13.90;99.90;;;;;;4974205;28;20328;-72
2022/06/10 00:36:32;;;;;;;10.85;7.88;;;13.90;99.90;;;;;;4993422;28;20204;-72
2022/06/10 00:38:59;;;;;;;8.75;6.60;;;13.80;99.90;;;;;;4990644;28;20296;-71
2022/06/10 00:41:26;;;;;;;13.18;7.85;;;13.80;99.90;;;;;;4999627;28;20212;-70
2022/06/10 00:43:54;;;;;;;9.35;6.88;;;13.70;99.90;;;;;;4995697;28;20208;-72
2022/06/10 00:46:27;;;;;;;12.63;7.10;;;13.70;99.90;;;;;;4997856;28;20200;-72
2022/06/10 00:48:59;;;;;;;11.45;7.15;;;13.70;99.90;;;;;;4991761;28;20243;-72
2022/06/10 00:51:37;;;;;;;8.23;6.90;;;13.70;99.90;;;;;;4994932;28;20216;-71
2022/06/10 00:54:10;;;;;;;8.18;6.78;;;13.70;99.90;;;;;;4995504;28;20303;-71
2022/06/10 00:56:41;;;;;;;9.15;6.00;;;13.70;99.90;;;;;;4978149;28;20201;-72
2022/06/10 00:59:14;;;;;;;9.40;6.70;;;13.60;99.90;;;;;;4993717;28;20205;-72
2022/06/10 01:01:42;;;;;;;9.30;6.65;;;13.60;99.90;;;;;;4990668;28;20651;-72
2022/06/10 01:04:10;;;;;;;10.65;6.60;;;13.70;99.90;;;;;;4995251;28;20287;-72
2022/06/10 01:06:37;;;;;;;7.30;5.43;;;13.50;99.90;;;;;;4991802;28;20292;-71
2022/06/10 01:09:05;;;;;;;9.65;6.80;;;13.60;99.90;;;;;;4992978;28;20196;-72
2022/06/10 01:11:51;;;;;;;13.75;6.93;;;13.50;99.90;;;;;;4992969;28;20558;-72
2022/06/10 01:14:35;;;;;;;11.02;7.05;;;13.50;99.90;;;;;;4972178;28;20312;-71
2022/06/10 01:17:12;;;;;;;7.25;6.03;;;13.50;99.90;;;;;;4988651;28;20295;-71
2022/06/10 01:20:09;;;;;;;12.15;7.53;;;13.50;99.90;;;;;;4985650;28;20296;-72
2022/06/10 01:23:20;;;;;;;8.63;7.63;;;13.50;99.90;;;;;;4974510;28;20581;-72
2022/06/10 01:26:24;;;;;;;7.25;6.43;;;13.50;99.90;;;;;;4986901;28;20239;-72
2022/06/10 01:29:28;;;;;;;8.32;6.95;;;13.50;99.90;;;;;;4971629;28;20277;-72
2022/06/10 01:32:01;;;;;;;11.02;6.95;;;13.40;99.90;;;;;;4972240;28;20694;-72
2022/06/10 01:34:36;;;;;;;12.35;7.10;;;13.40;99.90;;;;;;4968514;28;20228;-72
2022/06/10 01:37:10;;;;;;;10.02;6.68;;;13.30;99.90;;;;;;4983070;28;20520;-72
2022/06/10 01:39:46;;;;;;;11.63;7.18;;;13.30;99.90;;;;;;4972695;28;20220;-72
2022/06/10 01:42:20;;;;;;;9.30;7.68;;;13.30;99.90;;;;;;4986930;28;20316;-72
2022/06/10 01:44:56;;;;;;;11.82;6.68;;;13.20;99.90;;;;;;4968431;28;20195;-72
2022/06/10 01:47:29;;;;;;;13.05;8.60;;;13.20;99.90;;;;;;4972651;28;20201;-70
2022/06/10 01:50:01;;;;;;;8.70;7.80;;;13.20;99.90;;;;;;4974289;28;20231;-71
2022/06/10 01:52:34;;;;;;;9.93;8.05;;;13.20;99.90;;;;;;4991385;28;20260;-72
2022/06/10 01:55:11;;;;;;;16.50;8.07;;;13.20;99.90;;;;;;4993917;28;20713;-71
2022/06/10 01:57:44;;;;;;;8.10;7.03;;;13.20;99.90;;;;;;4969354;28;20674;-71
2022/06/10 02:00:14;;;;;;;10.70;7.88;;;13.10;99.90;;;;;;4990462;28;20283;-71
2022/06/10 02:02:51;;;;;;;7.13;6.43;;;13.20;99.90;;;;;;4987754;28;20226;-72
2022/06/10 02:05:22;;;;;;;10.48;6.45;;;13.20;99.90;;;;;;4991675;28;20208;-71
2022/06/10 02:07:53;;;;;;;10.65;7.05;;;13.10;99.90;;;;;;4986231;28;20641;-72
2022/06/10 02:10:25;;;;;;;10.45;7.63;;;13.10;99.90;;;;;;4984047;28;20259;-71
2022/06/10 02:12:57;;;;;;;15.13;7.35;;;13.10;99.90;;;;;;4988021;28;20233;-71
2022/06/10 02:15:30;;;;;;;16.38;7.20;;;13.10;99.90;;;;;;4985960;28;20231;-71
2022/06/10 02:18:05;;;;;;;11.23;7.47;;;13.10;99.90;;;;;;4988962;28;20240;-71
2022/06/10 02:20:33;;;;;;;11.60;7.55;;;13.10;99.90;;;;;;4979642;28;20741;-72
2022/06/10 02:23:05;;;;;;;8.48;6.32;;;13.00;99.90;;;;;;4982344;28;20255;-72
2022/06/10 02:25:37;;;;;;;11.13;7.63;;;13.00;99.90;;;;;;4988676;28;20284;-72
2022/06/10 02:28:09;;;;;;;8.80;6.88;;;13.00;99.90;;;;;;4986477;28;20625;-72
2022/06/10 02:30:43;;;;;;;8.40;7.45;;;13.00;99.90;;;;;;4989861;28;20201;-72
2022/06/10 02:33:12;;;;;;;8.93;6.90;;;13.00;99.90;;;;;;4992707;28;20228;-72
2022/06/10 02:35:44;;;;;;;8.95;8.05;;;12.90;99.90;;;;;;4992749;28;20668;-73
2022/06/10 02:38:16;;;;;;;12.10;8.95;;;12.90;99.90;;;;;;4996562;28;20214;-72
2022/06/10 02:40:56;;;;;;;11.18;7.97;;;12.90;99.90;;;;;;4997429;28;20291;-71
2022/06/10 02:43:43;;;;;;;13.02;9.30;;;12.80;99.90;;;;;;4997085;28;20704;-72
2022/06/10 02:46:17;;;;;;;13.35;8.80;;;12.80;99.90;;;;;;5005423;28;20231;-72
2022/06/10 02:48:54;;;;;;;9.52;8.27;;;12.80;99.90;;;;;;4979195;28;20213;-71
2022/06/10 02:51:21;;;;;;;12.13;10.52;;;12.80;99.90;;;;;;4998345;28;20621;-73
2022/06/10 02:53:48;;;;;;;12.10;9.38;;;12.80;99.90;;;;;;4997815;28;20266;-71
2022/06/10 02:56:18;;;;;;;11.55;9.48;;;12.70;99.90;;;;;;4995170;28;20274;-71
2022/06/10 03:01:40;;;;;;;11.30;8.15;;;12.70;99.90;;;;;;4992652;28;20211;-72
2022/06/10 03:04:17;;;;;;;14.90;9.07;;;12.70;99.90;;;;;;4993231;28;20210;-71
2022/06/10 03:07:01;;;;;;;9.48;8.43;;;12.70;99.90;;;;;;4993820;28;20570;-71
2022/06/10 03:09:41;;;;;;;10.98;9.68;;;12.80;99.90;;;;;;4992037;28;20207;-71
2022/06/10 03:12:21;;;;;;;14.35;8.23;;;12.80;99.90;;;;;;4975807;28;20231;-71
2022/06/10 03:15:02;;;;;;;9.10;7.45;;;12.80;99.90;;;;;;4976277;28;20630;-72
2022/06/10 03:17:41;;;;;;;10.02;7.32;;;12.80;99.90;;;;;;4974568;28;20254;-72
2022/06/10 03:20:16;;;;;;;11.90;7.93;;;12.90;99.90;;;;;;4974045;28;20199;-72
2022/06/10 03:22:59;;;;;;;10.32;7.93;;;12.80;99.90;;;;;;4974099;28;20620;-72
2022/06/10 03:25:33;;;;;;;7.65;6.90;;;12.90;99.90;;;;;;4975642;28;20212;-72
2022/06/10 03:28:07;;;;;;;7.95;6.82;;;12.80;99.90;;;;;;4976001;28;20210;-71
2022/06/10 03:30:37;;;;;;;11.07;7.47;;;12.90;99.90;;;;;;4976427;28;20212;-71
2022/06/10 03:33:12;;;;;;;14.10;7.63;;;12.90;99.90;;;;;;4992639;28;20260;-71
2022/06/10 03:35:45;;;;;;;10.25;7.85;;;12.90;99.90;;;;;;4990797;28;20225;-71
2022/06/10 03:38:12;;;;;;;9.93;6.43;;;12.90;99.90;;;;;;4989189;28;20217;-72
2022/06/10 03:40:40;;;;;;;9.68;7.63;;;13.00;99.90;;;;;;4998058;28;20291;-71
2022/06/10 03:43:12;;;;;;;13.60;6.93;;;13.00;99.90;;;;;;4994695;28;20251;-72
2022/06/10 03:45:42;;;;;;;13.80;7.97;;;13.00;99.90;;;;;;4996307;28;20200;-72
2022/06/10 03:48:14;;;;;;;9.52;6.65;;;13.00;99.90;;;;;;4998637;28;20304;-72
2022/06/10 03:50:43;;;;;;;10.43;7.45;;;13.10;99.90;;;;;;4994711;28;20329;-71
2022/06/10 03:53:14;;;;;;;9.63;7.63;;;13.20;99.90;;;;;;4999696;28;20294;-72
2022/06/10 03:55:41;;;;;;;9.82;8.48;;;13.20;99.90;;;;;;4988705;28;20229;-72
2022/06/10 03:58:10;;;;;;;8.57;6.45;;;13.30;99.90;;;;;;4996647;28;20223;-73
2022/06/10 04:00:37;;;;;;;11.93;6.75;;;13.40;99.90;;;;;;4997474;28;20209;-72
2022/06/10 04:03:04;;;;;;;11.27;8.43;;;13.50;99.90;;;;;;4995923;28;20278;-72
2022/06/10 04:05:31;;;;;;;12.38;7.65;;;13.60;99.90;;;;;;4996015;28;20197;-72
2022/06/10 04:08:00;;;;;;;7.40;5.05;;;14.30;99.90;;;;;;4994995;28;20297;-71
2022/06/10 04:10:29;;;;;;;5.57;5.05;;;15.30;99.90;;;;;;4987180;28;20675;-71
2022/06/10 04:12:56;;;;;;;10.00;5.25;;;16.30;99.90;;;;;;5003755;28;20304;-72
2022/06/10 04:15:24;;;;;;;6.07;4.90;;;17.20;99.90;;;;;;4995276;28;20230;-72
2022/06/10 04:17:53;;;;;;;8.80;4.57;;;18.00;99.90;;;;;;4998874;28;20491;-73
2022/06/10 04:20:26;;;;;;;8.03;5.20;;;18.60;99.90;;;;;;4992519;28;20460;-72
2022/06/10 04:22:53;;;;;;;5.70;4.20;;;19.30;99.90;;;;;;4996457;28;20459;-73
2022/06/10 04:25:21;;;;;;;8.60;3.80;;;19.90;99.90;;;;;;4994589;28;20487;-72
2022/06/10 04:27:48;;;;;;;6.70;4.33;;;20.40;99.90;;;;;;4992483;28;20453;-72
2022/06/10 04:30:23;;;;;;;6.47;5.00;;;20.50;99.90;;;;;;4986473;28;20458;-74
2022/06/10 04:32:50;;;;;;;8.03;5.37;;;21.10;99.90;;;;;;4991666;28;20480;-74
2022/06/10 04:35:18;;;;;;;10.03;4.87;;;21.50;98.50;;;;;;4994107;28;20467;-73
2022/06/10 04:37:45;;;;;;;9.27;4.30;;;21.40;96.80;;;;;;4993205;28;20961;-73
2022/06/10 04:40:15;;;;;;;7.20;4.97;;;21.50;97.00;;;;;;4997486;28;20444;-74
2022/06/10 04:42:43;;;;;;;6.37;4.23;;;21.90;96.80;;;;;;5001182;28;20482;-74
2022/06/10 04:45:11;;;;;;;9.90;4.23;;;22.20;95.70;;;;;;4999832;28;20465;-74
2022/06/10 04:47:38;;;;;;;8.93;4.23;;;22.30;94.90;;;;;;5003798;28;20547;-73
2022/06/10 04:50:07;;;;;;;6.80;3.73;;;22.60;94.20;;;;;;4994567;28;20559;-73
2022/06/10 04:52:35;;;;;;;4.83;3.37;;;22.50;93.70;;;;;;4990114;28;20583;-73
2022/06/10 05:25:11;;;;;;;5.70;2.97;;;26.00;83.80;;;;;;5278489;22;20502;-82
2022/06/10 05:27:38;;;;;;;7.57;3.90;;;26.00;83.00;;;;;;5040511;28;20581;-78
2022/06/10 05:30:09;;;;;;;5.70;3.30;;;26.40;81.70;;;;;;5031438;28;20458;-80
2022/06/10 05:32:35;;;;;;;6.63;3.00;;;26.70;81.40;;;;;;5021828;28;20480;-80
2022/06/10 05:35:03;;;;;;;7.10;3.37;;;26.60;79.90;;;;;;5021763;28;20449;-82
2022/06/10 05:37:31;;;;;;;8.13;3.17;;;26.50;80.50;;;;;;5026789;28;20491;-82
2022/06/10 05:39:58;;;;;;;3.73;2.70;;;26.60;80.60;;;;;;5020823;28;21077;-82
2022/06/10 05:42:26;;;;;;;7.90;4.23;;;26.50;80.80;;;;;;5019118;28;20455;-82
2022/06/10 05:44:54;;;;;;;8.00;3.60;;;27.10;79.50;;;;;;5022803;28;20456;-82
2022/06/10 05:47:24;;;;;;;7.27;3.23;;;27.00;78.50;;;;;;5032059;28;21025;-81
2022/06/10 05:49:56;;;;;;;7.47;3.40;;;27.80;78.70;;;;;;5027083;28;21028;-82
2022/06/10 05:52:26;;;;;;;7.50;3.40;;;28.00;77.10;;;;;;5035576;28;20562;-82
2022/06/10 05:54:55;;;;;;;6.60;2.63;;;28.30;76.30;;;;;;5025593;28;20515;-81
2022/06/10 05:57:23;;;;;;;4.13;2.37;;;28.00;75.00;;;;;;5027707;28;20467;-78
2022/06/10 05:59:52;;;;;;;7.47;3.13;;;28.40;75.70;;;;;;5039864;28;20475;-78
2022/06/10 06:02:21;;;;;;;10.33;3.77;;;28.90;75.20;;;;;;5036178;28;20455;-79
2022/06/10 06:04:48;;;;;;;7.83;2.60;;;29.00;73.20;;;;;;5056401;28;20491;-79
2022/06/10 06:07:18;;;;;;;7.37;2.67;;;29.40;73.40;;;;;;5047192;28;20447;-80
2022/06/10 06:09:45;;;;;;;6.37;2.70;;;29.50;73.30;;;;;;5042932;28;20456;-80
2022/06/10 06:12:12;;;;;;;7.90;2.80;;;29.80;72.10;;;;;;5037086;28;20460;-80
2022/06/10 06:14:39;;;;;;;5.03;2.87;;;30.00;71.10;;;;;;5043169;28;20466;-79
2022/06/10 06:17:08;;;;;;;4.80;2.23;;;29.70;72.00;;;;;;5038547;28;20462;-79
2022/06/10 06:19:35;;;;;;;8.07;2.93;;;29.40;72.80;;;;;;5038414;28;20494;-81
2022/06/10 06:22:03;;;;;;;6.30;2.50;;;29.60;70.40;;;;;;5039338;28;20515;-79
2022/06/10 06:24:29;;;;;;;7.30;2.33;;;29.40;71.10;;;;;;5032648;28;20822;-82
2022/06/10 06:26:57;;;;;;;6.07;2.50;;;29.50;69.70;;;;;;5039102;28;20522;-80
2022/06/10 06:29:24;;;;;;;5.10;1.87;;;29.00;70.30;;;;;;5034334;28;20483;-78
2022/06/10 06:31:52;;;;;;;5.50;2.20;;;28.70;71.70;;;;;;5041006;28;20512;-81
2022/06/10 06:34:21;;;;;;;9.17;2.73;;;28.70;70.80;;;;;;5038909;28;20453;-78
2022/06/10 06:36:51;;;;;;;9.83;2.87;;;27.80;72.30;;;;;;5034382;28;20462;-80
2022/06/10 06:39:20;;;;;;;5.03;1.90;;;28.30;73.30;;;;;;5039529;28;20466;-80
2022/06/10 06:41:47;;;;;;;5.70;2.87;;;28.80;72.20;;;;;;5050556;28;20439;-80
2022/06/10 06:44:14;;;;;;;4.70;2.53;;;29.20;71.90;;;;;;5043963;28;20456;-79
2022/06/10 06:46:43;;;;;;;4.93;2.40;;;29.60;69.90;;;;;;5042953;28;20495;-81
2022/06/10 06:49:13;;;;;;;6.03;2.00;;;30.30;69.40;;;;;;5039762;28;20470;-82
2022/06/10 06:51:42;;;;;;;4.63;1.67;;;30.20;68.60;;;;;;5042652;28;20439;-80
2022/06/10 06:54:09;;;;;;;5.93;1.97;;;29.60;68.00;;;;;;5055557;28;20514;-81
2022/06/10 06:56:37;;;;;;;9.00;2.47;;;28.90;68.00;;;;;;5036278;28;20468;-82
2022/06/10 06:59:05;;;;;;;4.23;2.30;;;29.20;69.60;;;;;;5036704;28;20436;-81
2022/06/10 07:01:32;;;;;;;7.37;2.37;;;30.10;67.90;;;;;;5041356;28;20471;-80
2022/06/10 07:03:59;;;;;;;6.97;2.27;;;30.90;66.80;;;;;;5044049;28;20447;-81
2022/06/10 07:06:26;;;;;;;4.60;2.03;;;30.90;64.70;;;;;;5024958;28;20479;-80
2022/06/10 07:08:55;;;;;;;5.63;2.27;;;31.00;63.60;;;;;;5043742;28;20485;-81
2022/06/10 07:11:21;;;;;;;9.90;2.43;;;30.50;63.00;;;;;;5037286;28;20470;-80
2022/06/10 07:13:48;;;;;;;5.83;2.37;;;29.90;64.60;;;;;;5039826;28;20487;-80
2022/06/10 07:16:15;;;;;;;12.03;2.97;;;29.90;66.10;;;;;;5031357;28;20459;-83
2022/06/10 07:18:42;;;;;;;4.93;2.47;;;29.90;66.00;;;;;;5041961;28;20455;-81
2022/06/10 07:21:09;;;;;;;6.17;2.33;;;29.80;65.80;;;;;;5031178;28;20469;-79
2022/06/10 07:23:36;;;;;;;4.97;1.87;;;29.30;66.00;;;;;;5037190;28;20949;-82
2022/06/10 07:26:05;;;;;;;12.80;2.13;;;30.00;65.40;;;;;;5038137;28;20543;-82
2022/06/10 07:28:32;;;;;;;8.40;3.03;;;30.50;65.30;;;;;;5023365;28;20444;-84
2022/06/10 07:30:59;;;;;;;6.90;2.10;;;30.10;64.20;;;;;;5031194;28;20528;-81
2022/06/10 07:33:27;;;;;;;3.57;1.90;;;30.20;63.00;;;;;;5029366;28;20524;-84
2022/06/10 07:35:55;;;;;;;3.90;1.73;;;30.50;62.60;;;;;;5037077;28;20593;-80
2022/06/10 07:38:22;;;;;;;5.67;2.20;;;30.30;61.30;;;;;;5030849;28;20468;-82
2022/06/10 07:43:38;;;;;;;5.63;2.10;;;31.10;60.30;;;;;;5029713;28;20983;-83
2022/06/10 07:46:08;;;;;;;4.63;1.50;;;31.80;58.30;;;;;;5033400;28;20475;-81
2022/06/10 07:48:35;;;;;;;4.67;2.10;;;31.50;57.90;;;;;;5037855;28;20491;-80
2022/06/10 07:51:10;;;;;;;7.43;2.33;;;31.70;57.90;;;;;;5037457;28;20456;-80
2022/06/10 07:53:46;;;;;;;6.90;3.60;;;31.80;57.80;;;;;;5038366;28;20428;-79
2022/06/10 07:56:22;;;;;;;6.57;2.40;;;32.30;58.00;;;;;;5034212;28;20434;-80
2022/06/10 07:58:53;;;;;;;7.43;2.80;;;32.40;58.30;;;;;;5038390;28;20444;-79
2022/06/10 08:01:52;;;;;;;8.50;4.00;;;32.10;58.50;;;;;;5018721;28;20465;-79
2022/06/10 08:04:19;;;;;;;18.07;4.10;;;31.60;58.80;;;;;;5024092;28;20512;-82
2022/06/10 08:07:03;;;;;;;8.67;3.80;;;31.30;60.10;;;;;;5018938;28;20492;-79
2022/06/10 08:09:33;;;;;;;8.37;3.77;;;30.80;61.30;;;;;;5030828;28;20456;-80
2022/06/10 08:12:00;;;;;;;8.73;3.83;;;31.60;60.80;;;;;;5036812;28;20405;-80
2022/06/10 08:14:28;;;;;;;6.93;4.10;;;31.30;60.10;;;;;;5018936;28;20449;-78
2022/06/10 08:16:56;;;;;;;7.67;4.47;;;30.20;61.70;;;;;;5018971;28;20473;-77
2022/06/10 08:19:23;;;;;;;11.00;4.23;;;29.10;64.60;;;;;;5018411;28;20453;-81
2022/06/10 08:24:34;;;;;;;11.93;4.97;;;28.60;66.60;;;;;;5018710;28;20444;-80
2022/06/10 08:27:01;;;;;;;6.17;4.03;;;27.80;68.10;;;;;;5016222;28;20523;-83
2022/06/10 08:29:29;;;;;;;9.20;4.27;;;28.70;68.40;;;;;;5009992;28;20512;-82
2022/06/10 08:31:56;;;;;;;7.43;4.90;;;29.50;67.50;;;;;;5020915;28;20548;-81
2022/06/10 08:34:24;;;;;;;7.30;3.90;;;29.80;65.70;;;;;;5014646;28;20437;-81
2022/06/10 08:36:51;;;;;;;9.30;4.90;;;29.70;65.90;;;;;;5007797;28;20507;-82
2022/06/10 08:39:18;;;;;;;6.50;4.83;;;30.00;66.30;;;;;;5007054;28;20483;-82
2022/06/10 08:42:03;;;;;;;4.87;3.77;;;29.30;66.70;;;;;;5017807;28;20900;-81
2022/06/10 08:44:40;;;;;;;9.57;3.80;;;27.70;67.60;;;;;;5004513;28;20448;-82
2022/06/10 08:47:31;;;;;;;7.67;3.57;;;26.70;71.00;;;;;;5009158;28;20484;-81
2022/06/10 08:50:17;;;;;;;11.10;4.80;;;26.80;71.50;;;;;;5009705;28;20497;-84
2022/06/10 08:52:56;;;;;;;7.70;4.23;;;26.50;72.80;;;;;;5002356;28;20460;-82
2022/06/10 08:55:39;;;;;;;10.90;4.10;;;26.30;72.40;;;;;;5005351;28;20464;-83
2022/06/10 08:58:15;;;;;;;9.30;4.30;;;25.20;73.50;;;;;;5009097;28;21014;-81
2022/06/10 09:00:45;;;;;;;11.33;3.90;;;24.80;75.10;;;;;;5004523;28;20470;-83
2022/06/10 09:03:18;;;;;;;8.47;4.30;;;25.70;76.10;;;;;;5008627;28;20451;-83
2022/06/10 09:05:50;;;;;;;9.57;3.70;;;27.20;72.90;;;;;;5003373;28;20958;-81
2022/06/10 09:08:21;;;;;;;5.40;4.33;;;28.50;69.40;;;;;;5012747;28;20455;-85
2022/06/10 09:10:53;;;;;;;8.50;3.87;;;28.80;68.80;;;;;;5006374;28;20468;-83
2022/06/10 09:13:35;;;;;;;8.83;4.27;;;29.40;67.10;;;;;;5011242;28;20438;-80
2022/06/10 09:16:16;;;;;;;17.93;4.73;;;29.30;67.10;;;;;;5013318;28;20448;-79
2022/06/10 09:18:58;;;;;;;7.03;3.60;;;29.90;67.10;;;;;;5015117;28;20516;-79
2022/06/10 09:21:31;;;;;;;8.70;2.83;;;29.20;65.90;;;;;;5008088;28;20468;-80
2022/06/10 09:24:03;;;;;;;9.10;3.73;;;28.80;66.80;;;;;;5012322;28;20465;-78
2022/06/10 09:26:38;;;;;;;10.60;3.50;;;27.90;68.70;;;;;;5010087;28;20479;-80
2022/06/10 09:29:04;;;;;;;8.00;4.13;;;28.00;68.90;;;;;;5004827;28;20520;-80
2022/06/10 09:31:40;;;;;;;6.37;3.80;;;27.10;68.80;;;;;;5014570;28;20445;-80
2022/06/10 09:34:27;;;;;;;5.10;3.80;;;26.60;71.90;;;;;;5015132;28;20463;-80
2022/06/10 09:37:02;;;;;;;5.43;3.77;;;26.10;73.70;;;;;;5021209;28;20447;-78
2022/06/10 09:42:35;;;;;;;10.00;4.33;;;25.50;75.80;;;;;;5015535;28;20440;-80
2022/06/10 09:45:13;;;;;;;9.70;4.37;;;25.00;77.40;;;;;;5022961;28;20440;-80
2022/06/10 09:47:57;;;;;;;6.50;3.90;;;24.90;79.90;;;;;;5023745;28;20498;-81
2022/06/10 09:50:32;;;;;;;8.30;3.70;;;25.00;80.70;;;;;;5022057;28;20464;-80
2022/06/10 09:53:15;;;;;;;6.37;3.20;;;24.60;81.30;;;;;;5020861;28;20527;-82
2022/06/10 09:55:52;;;;;;;6.47;3.20;;;24.50;83.30;;;;;;5004966;28;20445;-83
2022/06/10 09:58:45;;;;;;;5.17;3.17;;;24.00;84.10;;;;;;5012036;28;20448;-82
2022/06/10 10:01:24;;;;;;;7.80;3.20;;;23.90;85.90;;;;;;5007815;28;20457;-81
2022/06/10 10:04:25;;;;;;;10.27;3.00;;;23.80;86.30;;;;;;5008379;28;20461;-81
2022/06/10 10:07:01;;;;;;;9.33;4.10;;;24.00;86.20;;;;;;4989941;28;20492;-82
2022/06/10 10:09:40;;;;;;;6.07;2.30;;;24.40;84.90;;;;;;5002778;28;20470;-79
2022/06/10 10:12:15;;;;;;;5.80;1.93;;;24.30;83.20;;;;;;5007116;28;20472;-82
2022/06/10 10:14:52;;;;;;;9.00;2.53;;;24.20;83.90;;;;;;5011010;28;20757;-83
2022/06/10 10:17:36;;;;;;;4.03;1.83;;;24.50;84.60;;;;;;5011961;28;20440;-82
2022/06/10 10:20:15;;;;;;;11.43;2.17;;;24.60;83.30;;;;;;4999715;28;20535;-84
2022/06/10 10:23:02;;;;;;;6.10;2.30;;;24.30;84.00;;;;;;5009077;28;20598;-84
2022/06/10 10:25:34;;;;;;;4.27;2.00;;;24.10;84.60;;;;;;4999381;28;20492;-82
2022/06/10 10:28:14;;;;;;;4.90;1.50;;;24.70;85.10;;;;;;4998988;28;20488;-82
2022/06/10 10:31:01;;;;;;;5.00;1.83;;;24.90;84.30;;;;;;5015916;28;20496;-84
2022/06/10 10:33:55;;;;;;;3.27;1.70;;;24.90;83.50;;;;;;5013903;28;20515;-81
2022/06/10 10:36:35;;;;;;;5.63;2.07;;;24.90;85.20;;;;;;5009138;28;20503;-82
2022/06/10 10:39:15;;;;;;;5.43;2.00;;;24.00;86.80;;;;;;5014312;28;20508;-81
2022/06/10 10:41:46;;;;;;;7.10;2.47;;;23.50;89.90;;;;;;5010837;28;20459;-79
2022/06/10 10:44:29;;;;;;;2.70;2.30;;;23.20;90.90;;;;;;5016645;28;20443;-80
2022/06/10 10:47:03;;;;;;;2.67;1.87;;;23.20;92.10;;;;;;5015968;28;20472;-80
2022/06/10 10:49:33;;;;;;;3.27;2.27;;;22.90;92.60;;;;;;5014799;28;20471;-82
2022/06/10 10:52:07;;;;;;;7.90;2.70;;;23.10;93.30;;;;;;5016563;28;20429;-81
2022/06/10 10:54:42;;;;;;;3.23;1.97;;;23.20;93.20;;;;;;5016064;28;20461;-84
2022/06/10 10:57:22;;;;;;;2.87;2.00;;;23.20;93.20;;;;;;5028381;28;20462;-87
2022/06/10 11:00:25;;;;;;;3.67;2.70;;;23.10;93.70;;;;;;5018022;28;20943;-85
2022/06/10 11:02:54;;;;;;;5.50;3.30;;;23.40;93.50;;;;;;5015637;28;20772;-85
2022/06/10 11:05:31;;;;;;;5.37;3.40;;;23.50;93.30;;;;;;5026034;28;20448;-85
2022/06/10 11:08:24;;;;;;;7.70;3.70;;;23.60;93.70;;;;;;5015992;28;20477;-83
2022/06/10 11:11:00;;;;;;;7.80;3.37;;;23.80;93.40;;;;;;5016293;28;20460;-86
2022/06/10 11:13:37;;;;;;;11.00;4.63;;;24.20;92.80;;;;;;5009752;28;20425;-83
2022/06/10 11:16:19;;;;;;;4.60;2.97;;;23.90;92.90;;;;;;5026964;28;20431;-83
2022/06/10 11:18:47;;;;;;;9.90;3.30;;;23.90;93.50;;;;;;5021651;28;20471;-85
2022/06/10 11:21:14;;;;;;;4.77;3.10;;;23.90;93.30;;;;;;5016365;28;20469;-81
2022/06/10 11:23:53;;;;;;;9.13;2.80;;;23.80;93.70;;;;;;5018908;28;20467;-86
2022/06/10 11:26:22;;;;;;;6.90;3.00;;;24.00;93.50;;;;;;5019219;28;20447;-84
2022/06/10 11:28:58;;;;;;;8.40;3.40;;;23.80;93.70;;;;;;5022536;28;20459;-84
2022/06/10 11:31:33;;;;;;;5.03;3.03;;;23.40;94.20;;;;;;5030722;28;20435;-83
2022/06/10 11:34:03;;;;;;;6.83;2.60;;;23.50;94.70;;;;;;5025259;28;20512;-81
2022/06/10 11:36:36;;;;;;;4.77;2.70;;;23.40;94.50;;;;;;5003981;28;20429;-81
2022/06/10 11:39:20;;;;;;;8.20;2.37;;;23.00;95.50;;;;;;5037812;28;20439;-81
2022/06/10 11:42:07;;;;;;;6.20;2.50;;;22.70;96.10;;;;;;5018848;28;20483;-82
2022/06/10 11:44:39;;;;;;;6.30;2.80;;;22.30;97.60;;;;;;5011153;28;20556;-84
2022/06/10 11:47:15;;;;;;;4.17;2.60;;;22.00;98.50;;;;;;5015955;28;20484;-84
2022/06/10 11:49:51;;;;;;;5.67;3.30;;;21.90;99.40;;;;;;5033282;28;20501;-85
2022/06/10 11:52:28;;;;;;;8.67;3.37;;;21.90;99.60;;;;;;5013919;28;20554;-84
2022/06/10 11:55:03;;;;;;;3.00;2.60;;;21.70;99.90;;;;;;5019983;28;20443;-84
2022/06/10 12:00:32;;;;;;;5.53;2.80;;;22.00;99.90;;;;;;5003336;28;20454;-83
2022/06/10 12:03:11;;;;;;;4.23;2.53;;;22.30;99.00;;;;;;5008431;28;20425;-86
2022/06/10 12:05:53;;;;;;;5.20;3.60;;;22.50;98.90;;;;;;5024977;28;20466;-83
2022/06/10 12:08:32;;;;;;;21.97;15.97;;;22.30;98.60;;;;;;5017196;28;20575;-82
2022/06/10 12:11:05;;;;;;;4.63;3.07;;;22.00;98.90;;;;;;5017452;28;20463;-83
2022/06/10 12:13:37;;;;;;;6.80;3.50;;;21.90;99.70;;;;;;5023036;28;20510;-82
2022/06/10 12:16:06;;;;;;;4.97;2.97;;;21.90;99.70;;;;;;5017356;28;20452;-82
2022/06/10 12:18:41;;;;;;;5.17;2.93;;;22.30;99.80;;;;;;5024032;28;20457;-83
2022/06/10 12:21:17;;;;;;;6.23;3.20;;;22.80;98.30;;;;;;5011513;28;20456;-82
2022/06/10 12:23:47;;;;;;;8.07;3.63;;;23.20;97.10;;;;;;5029432;28;20485;-82
2022/06/10 12:26:34;;;;;;;8.37;2.93;;;23.20;96.50;;;;;;5017304;28;20449;-82
2022/06/10 12:29:11;;;;;;;13.50;7.50;;;23.30;96.80;;;;;;5033060;28;20438;-82
2022/06/10 12:31:52;;;;;;;8.63;3.27;;;23.00;96.80;;;;;;5025291;28;20427;-84
2022/06/10 12:34:26;;;;;;;5.20;3.20;;;22.50;97.80;;;;;;5014797;28;20432;-82
2022/06/10 12:36:58;;;;;;;4.40;3.43;;;22.10;99.00;;;;;;5013448;28;21049;-86
2022/06/10 12:39:29;;;;;;;9.37;4.70;;;21.90;99.70;;;;;;5012419;28;20493;-85
2022/06/10 12:42:06;;;;;;;10.60;4.30;;;21.70;99.90;;;;;;5012969;28;20476;-84
2022/06/10 12:44:37;;;;;;;15.27;5.40;;;21.50;99.90;;;;;;5026999;28;20447;-86
2022/06/10 12:47:07;;;;;;;6.53;3.73;;;21.50;99.90;;;;;;5016165;28;20579;-83
2022/06/10 12:49:39;;;;;;;8.13;3.73;;;21.60;99.90;;;;;;5013889;28;20479;-84
2022/06/10 12:52:25;;;;;;;7.63;4.03;;;21.80;99.90;;;;;;5012950;28;20444;-85
2022/06/10 12:54:59;;;;;;;6.60;3.40;;;22.00;99.90;;;;;;5013524;28;20478;-83
2022/06/10 12:57:35;;;;;;;7.07;3.40;;;21.80;99.90;;;;;;5014445;28;20428;-85
2022/06/10 13:00:35;;;;;;;4.50;3.07;;;21.90;99.90;;;;;;5013474;28;20767;-83
2022/06/10 13:03:22;;;;;;;4.70;3.40;;;22.00;99.90;;;;;;5017551;28;20439;-86
2022/06/10 13:05:50;;;;;;;4.33;3.47;;;22.30;99.40;;;;;;5015235;28;20451;-83
2022/06/10 13:08:40;;;;;;;4.63;3.43;;;22.40;98.90;;;;;;5013508;28;20477;-84
2022/06/10 13:11:10;;;;;;;5.60;3.80;;;22.70;98.30;;;;;;5017185;28;20488;-85
2022/06/10 13:13:39;;;;;;;6.67;2.93;;;23.10;97.80;;;;;;5019999;28;20448;-82
2022/06/10 13:16:36;;;;;;;6.27;3.43;;;23.40;97.40;;;;;;5019158;28;20457;-82
2022/06/10 13:19:05;;;;;;;6.40;4.13;;;23.70;95.80;;;;;;5016021;28;20441;-86
2022/06/10 13:21:34;;;;;;;4.40;3.33;;;23.70;95.70;;;;;;5022975;28;20508;-84
2022/06/10 13:24:11;;;;;;;7.33;3.80;;;23.80;95.60;;;;;;5030241;28;20950;-87
2022/06/10 13:26:39;;;;;;;4.37;2.10;;;24.00;95.40;;;;;;5029097;28;20451;-86
2022/06/10 13:29:12;;;;;;;7.47;2.90;;;24.20;95.20;;;;;;5018501;28;20477;-87
2022/06/10 13:31:47;;;;;;;8.00;3.87;;;24.20;95.00;;;;;;5018496;28;20446;-85
2022/06/10 13:34:21;;;;;;;5.00;2.67;;;24.00;94.50;;;;;;5019142;28;20447;-85
2022/06/10 13:36:55;;;;;;;4.50;3.13;;;23.80;94.70;;;;;;5006227;28;20441;-81
2022/06/10 13:39:28;;;;;;;5.87;3.30;;;24.00;94.80;;;;;;5020289;28;20530;-88
2022/06/10 13:41:56;;;;;;;4.73;2.60;;;23.80;94.70;;;;;;5020731;28;20459;-85
2022/06/10 13:44:45;;;;;;;5.17;2.30;;;23.60;95.20;;;;;;5024613;28;20452;-85
2022/06/10 13:47:22;;;;;;;3.87;2.17;;;23.50;95.00;;;;;;5012703;28;20839;-84
2022/06/10 13:50:16;;;;;;;9.13;2.50;;;23.30;95.50;;;;;;4998188;28;20462;-82
2022/06/10 13:52:50;;;;;;;3.70;2.73;;;23.20;95.60;;;;;;5008594;28;20449;-85
2022/06/10 13:55:35;;;;;;;6.83;2.57;;;23.40;95.70;;;;;;5010115;28;20455;-83
2022/06/10 13:58:07;;;;;;;6.13;2.83;;;23.60;95.60;;;;;;5023482;28;20446;-84
2022/06/10 14:00:42;;;;;;;5.50;2.00;;;23.60;94.90;;;;;;5013964;28;20469;-85
2022/06/10 14:03:34;;;;;;;5.70;2.70;;;23.80;94.70;;;;;;5023613;28;20420;-82